Daireaux, Argentina
Current Conditions -  °F | °C
As of 1:00 PM on Friday 24 Oct 2014 (Local Time) from SAEZ Reporting Station
Broken Clouds Broken Clouds  
Wind Chill: 30°   Ceiling: 20000
Heat Index: 30°   Visibility: 6mi
Dew Point: 17°   Wind: 5mph
Humidity: 45%   Direction: 20°NNE
Pressure: 29.97"   Gusts: NA
Location:  36.6°S, 61.75°W
Report Text: SAEZ 241600Z 02004KT 310V080 9999 FEW045 BKN200 30/17 Q1015
Loading
Personal Weather Stations






























Interactive Weather Map
Tropical Storm Tracking
New forecast layout! Learn more

10-Day Weather Forecast

Advertisements
Track Severe Weather on mobile